createdAt,value
2022-10-08T00:01:10.501Z,52.64
2022-10-08T00:03:16.844Z,52.60
2022-10-08T00:05:18.439Z,51.95
2022-10-08T00:07:20.042Z,50.57
2022-10-08T00:09:21.698Z,49.74
2022-10-08T00:11:26.377Z,49.46
2022-10-08T00:13:40.700Z,49.23
2022-10-08T00:15:42.828Z,49.34
2022-10-08T00:17:44.410Z,53.58
2022-10-08T00:19:46.036Z,53.33
2022-10-08T00:21:50.974Z,55.43
2022-10-08T00:23:53.232Z,55.02
2022-10-08T00:25:54.901Z,52.81
2022-10-08T00:27:56.513Z,51.06
2022-10-08T00:29:58.160Z,50.36
2022-10-08T00:31:59.906Z,49.39
2022-10-08T00:34:05.933Z,49.60
2022-10-08T00:36:11.599Z,49.42
2022-10-08T00:38:13.363Z,49.91
2022-10-08T00:40:15.941Z,50.91
2022-10-08T00:42:17.660Z,51.52
2022-10-08T00:44:44.027Z,50.50
2022-10-08T00:46:50.483Z,50.88
2022-10-08T00:49:12.454Z,51.54
2022-10-08T00:51:14.037Z,51.45
2022-10-08T00:53:15.866Z,53.09
2022-10-08T00:55:20.653Z,52.76
2022-10-08T00:57:22.771Z,51.69
2022-10-08T00:59:24.644Z,51.74
2022-10-08T01:01:26.463Z,50.09
2022-10-08T01:03:28.103Z,51.38
2022-10-08T01:05:43.187Z,50.57
2022-10-08T01:07:59.680Z,51.22
2022-10-08T01:10:10.054Z,52.17
2022-10-08T01:12:36.643Z,51.01
2022-10-08T01:14:55.016Z,50.96
2022-10-08T01:17:11.386Z,50.91
2022-10-08T01:19:25.037Z,50.76
2022-10-08T01:21:43.468Z,51.20
2022-10-08T01:24:00.798Z,52.57
2022-10-08T01:26:37.705Z,53.29
2022-10-08T01:28:48.865Z,52.43
2022-10-08T01:30:58.396Z,53.40
2022-10-08T01:33:06.076Z,53.34
2022-10-08T01:35:13.423Z,51.60
2022-10-08T01:37:29.554Z,51.89
2022-10-08T01:39:35.284Z,53.14
2022-10-08T01:41:38.826Z,52.82
2022-10-08T01:43:45.690Z,52.97
2022-10-08T01:45:57.178Z,53.04
2022-10-08T01:48:04.269Z,53.92
2022-10-08T01:50:17.927Z,53.48
2022-10-08T01:52:27.158Z,52.63
2022-10-08T01:54:33.046Z,52.48
2022-10-08T01:56:38.096Z,52.55
2022-10-08T01:58:50.156Z,52.47
2022-10-08T02:00:55.407Z,51.89
2022-10-08T02:02:57.061Z,52.04
2022-10-08T02:04:58.802Z,52.09
2022-10-08T02:07:04.964Z,51.38
2022-10-08T02:09:06.591Z,50.48
2022-10-08T02:11:08.651Z,51.95
2022-10-08T02:13:11.327Z,51.78
2022-10-08T02:16:04.350Z,51.59
2022-10-08T02:18:15.162Z,50.79
2022-10-08T02:20:32.125Z,52.24
2022-10-08T02:22:38.181Z,50.79
2022-10-08T02:24:46.184Z,50.62
2022-10-08T02:26:51.084Z,50.26
2022-10-08T02:29:06.957Z,50.73
2022-10-08T02:31:16.470Z,50.93
2022-10-08T02:33:36.210Z,51.56
2022-10-08T02:35:47.069Z,51.76
2022-10-08T02:38:13.208Z,50.36
2022-10-08T02:40:17.695Z,51.36
2022-10-08T02:42:24.474Z,52.52
2022-10-08T02:44:33.169Z,51.23
2022-10-08T02:46:40.432Z,50.64
2022-10-08T02:48:47.826Z,51.78
2022-10-08T02:50:52.307Z,52.23
2022-10-08T02:52:54.682Z,51.59
2022-10-08T02:55:01.605Z,50.67
2022-10-08T02:57:27.614Z,50.36
2022-10-08T02:59:29.564Z,49.73
2022-10-08T03:01:44.716Z,50.16
2022-10-08T03:03:57.243Z,49.70
2022-10-08T03:06:03.059Z,50.80
2022-10-08T03:08:06.149Z,52.09
2022-10-08T03:10:09.188Z,50.52
2022-10-08T03:12:11.013Z,49.59
2022-10-08T03:14:14.584Z,49.13
2022-10-08T03:16:20.461Z,50.15
2022-10-08T03:18:25.111Z,50.52
2022-10-08T03:20:27.116Z,50.71
2022-10-08T03:22:30.714Z,49.69
2022-10-08T03:24:32.378Z,48.72
2022-10-08T03:26:34.067Z,50.58
2022-10-08T03:28:35.707Z,50.88
2022-10-08T03:30:37.445Z,50.40
2022-10-08T03:32:39.108Z,49.78
2022-10-08T03:34:40.754Z,49.79
2022-10-08T03:36:42.337Z,49.84
2022-10-08T03:38:44.071Z,50.70
2022-10-08T03:40:55.427Z,50.72
2022-10-08T03:42:57.056Z,50.63
2022-10-08T03:45:01.357Z,50.40
2022-10-08T03:47:03.118Z,50.49
2022-10-08T03:49:04.886Z,49.15
2022-10-08T03:51:14.426Z,49.81
2022-10-08T03:53:16.000Z,49.09
2022-10-08T03:55:17.978Z,50.22
2022-10-08T03:57:19.598Z,49.15
2022-10-08T03:59:21.243Z,50.43
2022-10-08T04:01:24.052Z,51.26
2022-10-08T04:03:27.241Z,50.13
2022-10-08T04:05:28.843Z,48.96
2022-10-08T04:07:30.470Z,49.21
2022-10-08T04:09:32.141Z,49.02
2022-10-08T04:11:33.762Z,48.88
2022-10-08T04:13:36.951Z,49.20
2022-10-08T04:15:38.690Z,50.52
2022-10-08T04:17:43.316Z,49.73
2022-10-08T04:19:44.948Z,50.14
2022-10-08T04:21:46.604Z,49.39
2022-10-08T04:23:51.642Z,50.11
2022-10-08T04:25:54.266Z,49.04
2022-10-08T04:27:55.900Z,50.20
2022-10-08T04:29:57.500Z,49.66
2022-10-08T04:31:59.092Z,49.51
2022-10-08T04:34:00.727Z,50.03
2022-10-08T04:36:07.903Z,49.40
2022-10-08T04:38:09.476Z,48.62
2022-10-08T04:40:11.130Z,47.82
2022-10-08T04:42:12.730Z,48.54
2022-10-08T04:44:14.301Z,48.24
2022-10-08T04:46:18.384Z,48.21
2022-10-08T04:48:20.022Z,48.94
2022-10-08T04:50:21.686Z,48.72
2022-10-08T04:52:23.308Z,48.00
2022-10-08T04:54:25.011Z,49.32
2022-10-08T04:56:29.437Z,48.95
2022-10-08T04:58:31.538Z,48.91
2022-10-08T05:00:35.909Z,48.98
2022-10-08T05:02:37.558Z,48.97
2022-10-08T05:04:39.205Z,48.58
2022-10-08T05:06:40.806Z,48.56
2022-10-08T05:08:43.784Z,49.62
2022-10-08T05:10:49.422Z,49.46
2022-10-08T05:12:50.998Z,49.42
2022-10-08T05:14:52.591Z,48.44
2022-10-08T05:16:54.293Z,48.69
2022-10-08T05:18:56.605Z,49.74
2022-10-08T05:21:02.564Z,48.74
2022-10-08T05:23:04.203Z,47.59
2022-10-08T05:25:06.380Z,48.16
2022-10-08T05:27:07.946Z,49.20
2022-10-08T05:29:10.700Z,49.87
2022-10-08T05:31:12.383Z,47.82
2022-10-08T05:33:13.986Z,47.77
2022-10-08T05:35:15.746Z,47.42
2022-10-08T05:37:17.494Z,48.59
2022-10-08T05:39:19.176Z,50.22
2022-10-08T05:41:22.946Z,49.49
2022-10-08T05:43:24.515Z,48.92
2022-10-08T05:45:26.232Z,49.26
2022-10-08T05:47:27.885Z,49.67
2022-10-08T05:49:29.551Z,49.58
2022-10-08T05:51:31.887Z,49.59
2022-10-08T05:53:37.215Z,49.69
2022-10-08T05:55:38.808Z,51.21
2022-10-08T05:57:40.418Z,49.99
2022-10-08T05:59:42.072Z,48.96
2022-10-08T06:01:44.143Z,51.20
2022-10-08T06:03:50.435Z,49.05
2022-10-08T06:05:52.527Z,48.81
2022-10-08T06:07:57.489Z,49.47
2022-10-08T06:09:59.064Z,48.88
2022-10-08T06:12:00.675Z,50.14
2022-10-08T06:14:04.858Z,49.07
2022-10-08T06:16:11.573Z,49.73
2022-10-08T06:18:13.224Z,49.03
2022-10-08T06:20:14.972Z,50.64
2022-10-08T06:22:16.568Z,49.24
2022-10-08T06:24:18.255Z,48.55
2022-10-08T06:26:22.167Z,48.64
2022-10-08T06:28:23.823Z,48.76
2022-10-08T06:30:25.483Z,49.15
2022-10-08T06:32:27.071Z,49.60
2022-10-08T06:34:28.623Z,49.16
2022-10-08T06:36:30.995Z,49.50
2022-10-08T06:38:33.949Z,49.00
2022-10-08T06:40:41.591Z,49.72
2022-10-08T06:42:43.212Z,49.29
2022-10-08T06:44:44.778Z,49.14
2022-10-08T06:46:46.533Z,49.53
2022-10-08T06:48:48.676Z,49.18
2022-10-08T06:50:58.697Z,49.34
2022-10-08T06:53:00.378Z,49.74
2022-10-08T06:55:02.056Z,50.29
2022-10-08T06:57:03.669Z,48.90
2022-10-08T06:59:06.289Z,49.31
2022-10-08T07:01:10.475Z,49.36
2022-10-08T07:03:12.262Z,49.15
2022-10-08T07:05:13.962Z,50.87
2022-10-08T07:07:15.674Z,50.22
2022-10-08T07:09:17.331Z,48.59
2022-10-08T07:11:19.446Z,48.30
2022-10-08T07:13:21.700Z,48.98
2022-10-08T07:15:23.270Z,48.84
2022-10-08T07:17:26.352Z,49.07
2022-10-08T07:19:27.946Z,48.79
2022-10-08T07:21:30.503Z,49.07
2022-10-08T07:23:32.127Z,47.84
2022-10-08T07:25:33.796Z,48.00
2022-10-08T07:27:35.431Z,48.03
2022-10-08T07:29:37.027Z,47.80
2022-10-08T07:31:39.309Z,47.66
2022-10-08T07:33:41.222Z,48.93
2022-10-08T07:35:42.787Z,48.93
2022-10-08T07:37:44.395Z,48.32
2022-10-08T07:39:46.015Z,48.25
2022-10-08T07:41:49.435Z,48.65
2022-10-08T07:43:55.760Z,48.60
2022-10-08T07:45:57.481Z,48.74
2022-10-08T07:47:59.349Z,48.42
2022-10-08T07:50:00.963Z,48.52
2022-10-08T07:52:02.564Z,48.55
2022-10-08T07:54:07.413Z,48.29
2022-10-08T07:56:10.896Z,48.40
2022-10-08T07:58:13.343Z,48.52
2022-10-08T08:00:15.079Z,48.51
2022-10-08T08:02:16.972Z,47.33
2022-10-08T08:04:18.591Z,47.37
2022-10-08T08:06:20.213Z,47.15
2022-10-08T08:08:25.017Z,46.19
2022-10-08T08:10:26.570Z,47.07
2022-10-08T08:12:28.183Z,45.56
2022-10-08T08:14:29.784Z,45.42
2022-10-08T08:16:31.618Z,45.69
2022-10-08T08:18:36.168Z,45.30
2022-10-08T08:20:37.754Z,44.21
2022-10-08T08:22:39.418Z,44.21
2022-10-08T08:24:41.069Z,43.90
2022-10-08T08:26:43.622Z,43.99
2022-10-08T08:28:45.770Z,43.92
2022-10-08T08:30:47.537Z,44.43
2022-10-08T08:32:49.671Z,43.86
2022-10-08T08:34:51.486Z,44.28
2022-10-08T08:36:53.989Z,43.98
2022-10-08T08:38:56.840Z,43.61
2022-10-08T08:41:13.055Z,44.77
2022-10-08T08:43:16.356Z,43.90
2022-10-08T08:45:45.418Z,43.88
2022-10-08T08:47:53.132Z,43.73
2022-10-08T08:50:00.846Z,43.48
2022-10-08T08:52:04.931Z,43.35
2022-10-08T08:54:06.584Z,43.92
2022-10-08T08:56:14.611Z,42.67
2022-10-08T08:58:51.123Z,41.75
2022-10-08T09:01:00.287Z,43.07
2022-10-08T09:03:21.325Z,44.75
2022-10-08T09:05:25.345Z,44.52
2022-10-08T09:07:34.755Z,45.60
2022-10-08T09:09:44.967Z,44.19
2022-10-08T09:11:47.006Z,44.03
2022-10-08T09:13:57.565Z,42.59
2022-10-08T09:15:59.726Z,43.93
2022-10-08T09:18:03.827Z,43.69
2022-10-08T09:20:06.023Z,42.48
2022-10-08T09:22:40.030Z,41.57
2022-10-08T09:24:42.042Z,43.22
2022-10-08T09:26:43.730Z,43.08
2022-10-08T09:28:49.616Z,42.27
2022-10-08T09:30:51.378Z,42.76
2022-10-08T09:32:55.719Z,44.62
2022-10-08T09:34:57.358Z,44.90
2022-10-08T09:37:01.774Z,43.57
2022-10-08T09:39:07.579Z,43.56
2022-10-08T09:41:18.289Z,43.42
2022-10-08T09:43:20.137Z,41.98
2022-10-08T09:45:42.304Z,42.98
2022-10-08T09:47:43.909Z,42.91
2022-10-08T09:50:01.507Z,41.62
2022-10-08T09:52:22.368Z,41.27
2022-10-08T09:54:27.913Z,41.70
2022-10-08T09:56:31.042Z,43.38
2022-10-08T09:58:35.854Z,43.55
2022-10-08T10:00:39.645Z,44.52
2022-10-08T10:02:42.435Z,42.88
2022-10-08T10:04:45.932Z,43.57
2022-10-08T10:06:48.464Z,43.62
2022-10-08T10:09:25.157Z,41.50
2022-10-08T10:11:33.179Z,43.51
2022-10-08T10:13:38.992Z,42.41
2022-10-08T10:15:46.854Z,43.63
2022-10-08T10:17:59.678Z,43.04
2022-10-08T10:20:12.343Z,42.93
2022-10-08T10:22:49.797Z,42.19
2022-10-08T10:25:04.106Z,42.28
2022-10-08T10:27:20.405Z,43.40
2022-10-08T10:29:25.303Z,43.83
2022-10-08T10:31:42.152Z,42.16
2022-10-08T10:34:10.021Z,41.95
2022-10-08T10:36:16.884Z,40.63
2022-10-08T10:38:28.529Z,40.77
2022-10-08T10:40:34.557Z,41.42
2022-10-08T10:43:15.258Z,40.79
2022-10-08T10:45:25.317Z,41.07
2022-10-08T10:47:32.357Z,40.26
2022-10-08T10:49:38.568Z,40.87
2022-10-08T10:51:46.576Z,41.73
2022-10-08T10:54:19.246Z,41.24
2022-10-08T10:56:22.423Z,40.34
2022-10-08T10:58:45.406Z,39.77
2022-10-08T11:03:42.076Z,44.29
2022-10-08T11:05:46.212Z,42.58
2022-10-08T11:08:35.423Z,43.57
2022-10-08T11:11:14.350Z,42.21
2022-10-08T11:13:31.076Z,42.15
2022-10-08T11:15:35.524Z,41.18
2022-10-08T11:18:04.293Z,41.02
2022-10-08T11:20:24.277Z,41.99
2022-10-08T11:22:47.764Z,42.06
2022-10-08T11:24:52.493Z,41.61
2022-10-08T11:27:24.813Z,41.44
2022-10-08T11:29:29.223Z,41.63
2022-10-08T11:31:30.807Z,41.89
2022-10-08T11:33:33.430Z,40.46
2022-10-08T11:35:43.613Z,41.16
2022-10-08T11:37:48.935Z,40.73
2022-10-08T11:40:02.626Z,42.60
2022-10-08T11:42:48.564Z,42.05
2022-10-08T11:44:50.762Z,42.54
2022-10-08T11:46:52.330Z,40.48
2022-10-08T11:48:55.845Z,39.43
2022-10-08T11:51:19.003Z,41.19
2022-10-08T11:53:22.394Z,40.16
2022-10-08T11:55:27.571Z,39.77
2022-10-08T11:58:03.012Z,39.29
2022-10-08T12:00:07.936Z,39.42
2022-10-08T12:02:25.981Z,40.25
2022-10-08T12:04:31.865Z,39.16
2022-10-08T12:06:36.789Z,39.32
2022-10-08T12:08:57.098Z,40.50
2022-10-08T12:11:35.427Z,40.60
2022-10-08T12:13:37.029Z,39.92
2022-10-08T12:15:40.301Z,39.88
2022-10-08T12:17:53.022Z,39.79
2022-10-08T12:20:05.227Z,40.26
2022-10-08T12:22:24.200Z,40.75
2022-10-08T12:24:37.684Z,40.22
2022-10-08T12:27:17.796Z,40.20
2022-10-08T12:29:48.807Z,40.13
2022-10-08T12:32:01.595Z,39.63
2022-10-08T12:34:20.209Z,38.72
2022-10-08T12:36:46.931Z,38.50
2022-10-08T12:39:11.699Z,38.88
2022-10-08T12:41:25.248Z,39.26
2022-10-08T12:43:42.739Z,39.37
2022-10-08T12:46:01.307Z,39.81
2022-10-08T12:48:34.200Z,39.61
2022-10-08T12:51:02.623Z,39.02
2022-10-08T12:53:06.175Z,39.70
2022-10-08T12:55:17.718Z,40.05
2022-10-08T12:57:30.182Z,40.17
2022-10-08T12:59:32.279Z,38.75
2022-10-08T13:01:34.579Z,38.95
2022-10-08T13:03:36.208Z,39.55
2022-10-08T13:05:40.379Z,39.32
2022-10-08T13:07:41.968Z,39.38
2022-10-08T13:09:45.062Z,39.12
2022-10-08T13:11:48.739Z,39.70
2022-10-08T13:13:58.032Z,39.64
2022-10-08T13:16:01.273Z,39.30
2022-10-08T13:18:21.412Z,39.67
2022-10-08T13:20:23.885Z,38.88
2022-10-08T13:22:26.626Z,39.48
2022-10-08T13:24:28.092Z,40.02
2022-10-08T13:26:38.776Z,40.08
2022-10-08T13:28:59.191Z,40.70
2022-10-08T13:31:01.920Z,40.56
2022-10-08T13:33:15.373Z,41.15
2022-10-08T13:35:23.115Z,41.80
2022-10-08T13:37:26.982Z,41.26
2022-10-08T13:39:41.134Z,40.85
2022-10-08T13:41:56.819Z,40.70
2022-10-08T13:43:58.351Z,40.72
2022-10-08T13:46:00.406Z,40.95
2022-10-08T13:48:01.956Z,41.02
2022-10-08T13:50:03.652Z,40.83
2022-10-08T13:52:05.793Z,40.06
2022-10-08T13:54:09.172Z,38.98
2022-10-08T13:56:10.708Z,40.15
2022-10-08T13:58:14.712Z,40.48
2022-10-08T14:00:16.820Z,40.87
2022-10-08T14:02:18.388Z,41.11
2022-10-08T14:04:20.064Z,40.83
2022-10-08T14:06:21.598Z,41.22
2022-10-08T14:08:29.317Z,41.03
2022-10-08T14:10:31.452Z,40.57
2022-10-08T14:12:35.028Z,41.51
2022-10-08T14:14:36.775Z,40.54
2022-10-08T14:16:38.329Z,39.98
2022-10-08T14:18:39.901Z,41.21
2022-10-08T14:20:41.696Z,40.33
2022-10-08T14:22:43.301Z,40.03
2022-10-08T14:24:44.876Z,39.41
2022-10-08T14:26:46.517Z,40.68
2022-10-08T14:28:48.135Z,40.84
2022-10-08T14:30:49.803Z,40.69
2022-10-08T14:32:51.644Z,39.94
2022-10-08T14:34:53.177Z,40.71
2022-10-08T14:36:55.772Z,41.37
2022-10-08T14:38:57.452Z,40.77
2022-10-08T14:40:59.576Z,40.29
2022-10-08T14:43:01.122Z,39.32
2022-10-08T14:45:02.720Z,40.19
2022-10-08T14:47:04.262Z,39.89
2022-10-08T14:49:05.903Z,39.74
2022-10-08T14:51:07.499Z,39.71
2022-10-08T14:53:10.111Z,40.00
2022-10-08T14:55:12.200Z,39.30
2022-10-08T14:57:13.855Z,39.57
2022-10-08T14:59:15.581Z,40.32
2022-10-08T15:01:17.122Z,41.98
2022-10-08T15:03:18.635Z,41.18
2022-10-08T15:05:20.186Z,39.50
2022-10-08T15:07:22.053Z,40.06
2022-10-08T15:09:23.572Z,40.81
2022-10-08T15:11:25.388Z,41.37
2022-10-08T15:13:26.932Z,41.37
2022-10-08T15:15:28.426Z,41.87
2022-10-08T15:17:29.971Z,40.38
2022-10-08T15:19:31.564Z,39.47
2022-10-08T15:21:33.082Z,41.75
2022-10-08T15:23:34.635Z,41.24
2022-10-08T15:25:36.471Z,40.13
2022-10-08T15:27:38.064Z,40.79
2022-10-08T15:29:39.878Z,40.44
2022-10-08T15:31:41.507Z,39.86
2022-10-08T15:33:48.046Z,40.43
2022-10-08T15:35:51.932Z,41.06
2022-10-08T15:37:53.460Z,39.74
2022-10-08T15:39:55.016Z,40.19
2022-10-08T15:41:56.875Z,39.92
2022-10-08T15:44:09.756Z,40.07
2022-10-08T15:46:16.783Z,39.83
2022-10-08T15:48:18.591Z,40.21
2022-10-08T15:50:20.160Z,40.24
2022-10-08T15:52:22.155Z,39.67
2022-10-08T15:54:23.924Z,40.49
2022-10-08T15:56:26.135Z,39.26
2022-10-08T15:58:49.762Z,39.09
2022-10-08T16:00:52.200Z,39.12
2022-10-08T16:02:55.366Z,40.24
2022-10-08T16:04:57.075Z,38.65
2022-10-08T16:06:58.748Z,38.47
2022-10-08T16:09:00.547Z,39.11
2022-10-08T16:11:24.882Z,38.95
2022-10-08T16:13:26.452Z,39.85
2022-10-08T16:15:28.377Z,41.63
2022-10-08T16:17:30.629Z,40.40
2022-10-08T16:19:32.407Z,41.12
2022-10-08T16:21:35.594Z,40.22
2022-10-08T16:23:38.519Z,40.24
2022-10-08T16:25:43.523Z,39.73
2022-10-08T16:27:47.221Z,40.51
2022-10-08T16:29:48.928Z,41.88
2022-10-08T16:31:50.474Z,42.55
2022-10-08T16:34:03.812Z,41.01
2022-10-08T16:36:07.741Z,39.49
2022-10-08T16:38:09.283Z,39.66
2022-10-08T16:40:11.276Z,40.07
2022-10-08T16:42:12.838Z,40.38
2022-10-08T16:44:16.970Z,40.96
2022-10-08T16:46:24.855Z,39.48
2022-10-08T16:48:26.428Z,39.71
2022-10-08T16:50:27.972Z,40.13
2022-10-08T16:52:29.541Z,42.13
2022-10-08T16:54:31.462Z,44.63
2022-10-08T16:56:36.743Z,43.55
2022-10-08T16:58:38.249Z,42.93
2022-10-08T17:00:39.822Z,43.65
2022-10-08T17:02:41.417Z,43.78
2022-10-08T17:04:43.005Z,42.47
2022-10-08T17:06:44.636Z,43.29
2022-10-08T17:08:46.622Z,42.64
2022-10-08T17:10:48.178Z,42.96
2022-10-08T17:12:49.993Z,42.60
2022-10-08T17:14:51.887Z,43.13
2022-10-08T17:16:53.580Z,42.65
2022-10-08T17:18:57.155Z,43.17
2022-10-08T17:20:59.790Z,43.44
2022-10-08T17:23:01.383Z,43.07
2022-10-08T17:25:03.164Z,42.60
2022-10-08T17:27:04.696Z,43.05
2022-10-08T17:29:12.522Z,43.55
2022-10-08T17:31:28.835Z,43.48
2022-10-08T17:33:35.538Z,45.26
2022-10-08T17:35:37.602Z,44.77
2022-10-08T17:37:39.141Z,43.75
2022-10-08T17:39:40.687Z,44.24
2022-10-08T17:41:43.643Z,44.54
2022-10-08T17:43:46.131Z,44.21
2022-10-08T17:45:47.740Z,43.56
2022-10-08T17:47:49.303Z,44.09
2022-10-08T17:49:50.839Z,44.67
2022-10-08T17:51:52.414Z,44.36
2022-10-08T17:54:02.427Z,42.99
2022-10-08T17:56:08.637Z,42.40
2022-10-08T17:58:10.197Z,41.42
2022-10-08T18:00:12.555Z,41.07
2022-10-08T18:02:14.163Z,41.55
2022-10-08T18:04:18.036Z,42.67
2022-10-08T18:06:20.013Z,42.76
2022-10-08T18:08:21.567Z,41.46
2022-10-08T18:10:23.392Z,41.16
2022-10-08T18:12:24.975Z,41.03
2022-10-08T18:14:26.514Z,41.20
2022-10-08T18:16:28.098Z,41.33
2022-10-08T18:18:29.636Z,42.25
2022-10-08T18:20:31.175Z,41.91
2022-10-08T18:22:32.693Z,42.40
2022-10-08T18:24:34.841Z,42.27
2022-10-08T18:26:37.152Z,42.60
2022-10-08T18:28:38.825Z,44.45
2022-10-08T18:30:40.500Z,43.60
2022-10-08T18:32:42.668Z,44.81
2022-10-08T18:34:44.270Z,43.21
2022-10-08T18:36:46.270Z,42.30
2022-10-08T18:38:53.293Z,42.42
2022-10-08T18:40:54.824Z,42.34
2022-10-08T18:42:56.501Z,43.49
2022-10-08T18:44:58.365Z,44.03
2022-10-08T18:47:05.114Z,45.51
2022-10-08T18:49:07.373Z,45.00
2022-10-08T18:51:21.490Z,44.95
2022-10-08T18:53:23.031Z,44.88
2022-10-08T18:55:24.552Z,45.82
2022-10-08T18:57:26.146Z,43.61
2022-10-08T18:59:27.772Z,45.69
2022-10-08T19:01:34.772Z,46.00
2022-10-08T19:03:36.540Z,44.98
2022-10-08T19:05:39.005Z,45.55
2022-10-08T19:07:40.548Z,44.13
2022-10-08T19:09:42.096Z,44.99
2022-10-08T19:11:46.548Z,45.00
2022-10-08T19:13:48.086Z,44.97
2022-10-08T19:15:51.449Z,43.40
2022-10-08T19:17:53.153Z,44.54
2022-10-08T19:19:54.663Z,46.21
2022-10-08T19:21:56.298Z,45.76
2022-10-08T19:23:58.978Z,45.60
2022-10-08T19:26:00.524Z,44.63
2022-10-08T19:28:02.135Z,44.48
2022-10-08T19:30:04.270Z,44.54
2022-10-08T19:32:05.842Z,44.71
2022-10-08T19:34:08.237Z,44.73
2022-10-08T19:36:09.915Z,46.13
2022-10-08T19:38:11.475Z,45.45
2022-10-08T19:40:12.973Z,43.88
2022-10-08T19:42:14.539Z,44.32
2022-10-08T19:44:17.205Z,43.57
2022-10-08T19:46:19.312Z,42.57
2022-10-08T19:48:20.953Z,42.26
2022-10-08T19:50:22.500Z,42.55
2022-10-08T19:52:24.105Z,42.41
2022-10-08T19:54:25.797Z,43.11
2022-10-08T19:56:27.952Z,42.43
2022-10-08T19:58:29.548Z,42.99
2022-10-08T20:00:31.097Z,42.96
2022-10-08T20:02:32.730Z,42.34
2022-10-08T20:04:34.418Z,43.50
2022-10-08T20:06:39.415Z,43.16
2022-10-08T20:08:41.216Z,43.66
2022-10-08T20:10:42.760Z,43.88
2022-10-08T20:12:44.503Z,44.72
2022-10-08T20:14:46.020Z,45.65
2022-10-08T20:16:47.591Z,45.38
2022-10-08T20:18:50.876Z,46.25
2022-10-08T20:21:00.827Z,45.65
2022-10-08T20:23:02.404Z,45.20
2022-10-08T20:25:05.039Z,45.48
2022-10-08T20:27:06.611Z,45.56
2022-10-08T20:29:14.177Z,44.06
2022-10-08T20:31:19.340Z,43.35
2022-10-08T20:33:20.893Z,44.28
2022-10-08T20:35:22.462Z,44.62
2022-10-08T20:37:24.081Z,44.68
2022-10-08T20:39:25.628Z,44.63
2022-10-08T20:41:30.887Z,43.81
2022-10-08T20:43:35.698Z,42.71
2022-10-08T20:45:37.259Z,42.65
2022-10-08T20:47:38.868Z,43.79
2022-10-08T20:49:40.389Z,45.37
2022-10-08T20:51:43.747Z,45.44
2022-10-08T20:54:03.030Z,43.25
2022-10-08T20:56:14.153Z,43.12
2022-10-08T20:58:15.675Z,43.47
2022-10-08T21:00:17.269Z,43.01
2022-10-08T21:02:19.846Z,42.67
2022-10-08T21:04:22.002Z,42.49
2022-10-08T21:06:26.188Z,43.17
2022-10-08T21:08:28.043Z,45.36
2022-10-08T21:10:29.637Z,47.01
2022-10-08T21:12:31.408Z,45.66
2022-10-08T21:14:32.918Z,44.83
2022-10-08T21:16:37.922Z,46.20
2022-10-08T21:18:39.811Z,46.98
2022-10-08T21:20:41.306Z,44.17
2022-10-08T21:22:42.856Z,45.11
2022-10-08T21:24:45.229Z,45.46
2022-10-08T21:26:46.902Z,43.45
2022-10-08T21:28:51.036Z,43.52
2022-10-08T21:30:55.628Z,44.27
2022-10-08T21:32:57.221Z,44.36
2022-10-08T21:34:58.756Z,45.11
2022-10-08T21:37:00.279Z,44.69
2022-10-08T21:39:03.158Z,44.75
2022-10-08T21:41:12.508Z,44.58
2022-10-08T21:43:14.061Z,44.84
2022-10-08T21:45:15.615Z,45.35
2022-10-08T21:47:17.190Z,47.46
2022-10-08T21:49:22.855Z,46.93
2022-10-08T21:51:25.770Z,46.87
2022-10-08T21:53:29.276Z,45.73
2022-10-08T21:55:30.902Z,44.98
2022-10-08T21:57:32.458Z,44.28
2022-10-08T21:59:33.979Z,43.23
2022-10-08T22:01:39.879Z,43.86
2022-10-08T22:03:41.411Z,43.66
2022-10-08T22:05:52.875Z,44.38
2022-10-08T22:07:54.464Z,43.89
2022-10-08T22:09:55.976Z,43.38
2022-10-08T22:11:59.047Z,43.03
2022-10-08T22:14:00.645Z,43.86
2022-10-08T22:16:04.928Z,44.52
2022-10-08T22:18:06.583Z,44.16
2022-10-08T22:20:08.782Z,44.74
2022-10-08T22:22:10.469Z,43.87
2022-10-08T22:24:12.339Z,43.86
2022-10-08T22:26:19.491Z,44.09
2022-10-08T22:28:24.947Z,45.04
2022-10-08T22:30:26.716Z,43.28
2022-10-08T22:32:28.241Z,43.45
2022-10-08T22:34:29.838Z,43.08
2022-10-08T22:36:33.108Z,43.35
2022-10-08T22:38:37.145Z,43.86
2022-10-08T22:40:38.840Z,44.56
2022-10-08T22:42:40.419Z,44.04
2022-10-08T22:44:42.033Z,45.75
2022-10-08T22:46:43.539Z,43.99
2022-10-08T22:48:45.635Z,43.65
2022-10-08T22:50:47.365Z,43.36
2022-10-08T22:52:50.394Z,44.24
2022-10-08T22:54:52.127Z,43.54
2022-10-08T22:56:53.653Z,44.71
2022-10-08T22:58:55.993Z,44.21
2022-10-08T23:01:06.603Z,43.62
2022-10-08T23:03:08.192Z,44.12
2022-10-08T23:05:09.871Z,44.55
2022-10-08T23:07:11.429Z,44.09
2022-10-08T23:09:12.988Z,44.00
2022-10-08T23:11:16.271Z,43.94
2022-10-08T23:13:17.813Z,45.56
2022-10-08T23:15:20.098Z,45.51
2022-10-08T23:17:21.671Z,45.48
2022-10-08T23:19:23.219Z,45.50
2022-10-08T23:21:25.386Z,45.91
2022-10-08T23:23:26.973Z,45.78
2022-10-08T23:25:28.649Z,45.84
2022-10-08T23:27:30.184Z,45.50
2022-10-08T23:29:31.707Z,44.73
2022-10-08T23:31:36.288Z,44.88
2022-10-08T23:33:40.810Z,46.29
2022-10-08T23:35:42.618Z,45.21
2022-10-08T23:37:47.260Z,45.73
2022-10-08T23:39:48.787Z,45.67
2022-10-08T23:41:50.298Z,46.28
2022-10-08T23:43:53.021Z,45.95
2022-10-08T23:45:56.081Z,45.49
2022-10-08T23:47:57.630Z,45.82
2022-10-08T23:49:59.185Z,47.15
2022-10-08T23:52:00.731Z,45.83
2022-10-08T23:54:02.363Z,45.85
2022-10-08T23:56:04.606Z,46.02
2022-10-08T23:58:06.170Z,45.38
